»·PEaware :: BOE561 KSNA-KPSP

BOE561 :: KSNA-KPSP

FLIGHT INFORMATION

Flight Status: Arrived
Operator:
Boeing Commercial Airplane Group
More flights by this operator :: More flights under this callsign
Pilot: Ben F. (2808)
Aircraft: BOEING 737-200
(B732)
More flights by this aircraft type
Origin: KSNA John Wayne-Orange Co
United States
Destination: KPSP Palm Springs Intl
United States
More flights between these airports :: More routes between these airports
Route: MUSEL8 SLI J78 TRM
File this flight plan on PilotEdge
Remarks:
Altitude:
(Current/Filed)
19,000ft
Speed:
(Current/Filed)
380kts
Departed: 18-Apr-18 06:26 PM
Arrived: 18-Apr-18 06:51 PM
Distance/Time
Traveled:
68nm/0:25
Distance/Time
To Go:
Arrived

Flight Plot

Page will automatically refresh every two minutes.

Flight plan parsing failed; only flown route is shown


Map Options




Map Legend


Flown Route
Filed Route
Departure Airport
Arrival Airport
Navaid (VOR, NDB)
Fix

Horizontal Profiles

Position Reports

Time Latitude Longitude Heading Altitude Ground
Speed
18-Apr-18 18:07 33.671952 -117.866972 205 65ft 0kts
18-Apr-18 18:08 33.671952 -117.866972 205 65ft 0kts
18-Apr-18 18:09 33.671952 -117.866972 205 65ft 0kts
18-Apr-18 18:10 33.671952 -117.866972 205 65ft 0kts
18-Apr-18 18:11 33.671952 -117.866972 205 65ft 0kts
18-Apr-18 18:12 33.671952 -117.866972 205 65ft 0kts
18-Apr-18 18:13 33.671952 -117.866972 205 65ft 0kts
18-Apr-18 18:14 33.671952 -117.866972 205 65ft 0kts
18-Apr-18 18:15 33.671949 -117.866974 205 65ft 0kts
18-Apr-18 18:16 33.671781 -117.867558 297 65ft 0kts
18-Apr-18 18:17 33.671781 -117.867559 297 65ft 0kts
18-Apr-18 18:18 33.671781 -117.867559 297 65ft 0kts
18-Apr-18 18:19 33.671781 -117.867559 297 65ft 0kts
18-Apr-18 18:20 33.671781 -117.867559 297 65ft 0kts
18-Apr-18 18:21 33.672076 -117.867967 339 65ft 11kts
18-Apr-18 18:22 33.677689 -117.864187 27 65ft 27kts
18-Apr-18 18:23 33.680685 -117.863139 295 65ft 0kts
18-Apr-18 18:24 33.681034 -117.865451 206 65ft 0kts
18-Apr-18 18:25 33.656047 -117.881401 199 1044ft 167kts
18-Apr-18 18:26 33.603163 -117.889534 188 3138ft 228kts
18-Apr-18 18:27 33.536066 -117.889188 150 5998ft 271kts
18-Apr-18 18:28 33.520074 -117.801662 85 8966ft 302kts
18-Apr-18 18:29 33.528568 -117.698426 86 11087ft 336kts
18-Apr-18 18:30 33.536539 -117.582339 87 13487ft 357kts
18-Apr-18 18:31 33.544599 -117.462292 87 15821ft 371kts
18-Apr-18 18:32 33.552991 -117.340293 88 17762ft 386kts
18-Apr-18 18:33 33.561674 -117.212372 88 19031ft 404kts
18-Apr-18 18:34 33.570694 -117.077520 88 19030ft 413kts
18-Apr-18 18:35 33.579306 -116.946834 87 18994ft 419kts
18-Apr-18 18:36 33.588207 -116.810203 87 17422ft 402kts
18-Apr-18 18:37 33.596449 -116.681068 87 15694ft 380kts
18-Apr-18 18:38 33.604150 -116.558419 86 13961ft 363kts
18-Apr-18 18:39 33.611416 -116.440721 86 12245ft 349kts
18-Apr-18 18:40 33.618178 -116.330627 88 10461ft 313kts
18-Apr-18 18:41 33.623952 -116.234613 89 8614ft 275kts
18-Apr-18 18:42 33.634924 -116.148008 54 6588ft 266kts
18-Apr-18 18:43 33.695813 -116.152049 297 4536ft 253kts
18-Apr-18 18:44 33.723028 -116.226801 289 3977ft 253kts
18-Apr-18 18:45 33.736777 -116.303531 278 4005ft 215kts
18-Apr-18 18:46 33.747012 -116.368027 283 3700ft 188kts
18-Apr-18 18:47 33.763659 -116.426927 293 2308ft 190kts
18-Apr-18 18:48 33.790052 -116.472616 325 1293ft 148kts
18-Apr-18 18:49 33.821871 -116.500717 325 496ft 140kts
18-Apr-18 18:50 33.833183 -116.511542 247 486ft 6kts
18-Apr-18 18:51 33.832797 -116.511938 192 486ft 0kts
18-Apr-18 18:52 33.832690 -116.511949 181 486ft 0kts
18-Apr-18 18:53 33.832402 -116.511954 180 486ft 8kts
18-Apr-18 18:54 33.829188 -116.509319 142 486ft 16kts
18-Apr-18 18:55 33.825846 -116.506929 222 486ft 11kts
18-Apr-18 18:56 33.825715 -116.508746 90 486ft 0kts
18-Apr-18 18:57 33.825715 -116.508746 90 486ft 0kts
18-Apr-18 18:58 33.825715 -116.508746 90 486ft 0kts
18-Apr-18 18:59 33.825715 -116.508746 90 486ft 0kts

Navigation Log

Ident Type
Flight plan parsing failed, navigation log unavailable